No particular awareness of the weather is required.    There are no Weather-warnings


Meteo18 Weather Cam more information Meteo18 Weather Cam


Thunder radar more information blitzortung!


Rain radar more information rain snow radar


Visit our other weather sites:

Template documentation
and downloads

And another site



Weather Underground History page Text

Daily Summary for July 18, 2017 Units:  Metric    English   Both
« Previous Day
Next Day »
Daily Weekly Monthly Yearly Custom
  High: Low: Average:
Temperature: 33.8 °C 18.9 °C 26.4 °C
Dew Point: 19.8 °C 13.6 °C 15.7 °C
Humidity: 77 % 32 % 54 %
Wind Speed: 16.1 km/h 0.0 km/h 3.3 km/h
Wind Gust: 25.7 km/h - -
Wind:- - ESE
Pressure: 1017.8 hPa 1010.4 hPa -
Precipitation: 0.3 mm    
Historical Graphs
 
 
Tabular Data for July 18, 2017
Time Temperature Dew Point Pressure Wind Wind Speed Wind Gust Humidity Rainfall Rate (Hourly)
00:02 22.3 °C 15.6 °C 1017.8 hPa NNW 1.6 km/h 3.2 km/h 66 % 0.0 mm
00:12 22.2 °C 15.8 °C 1017.8 hPa Calm   3.2 km/h 67 % 0.0 mm
00:17 22.1 °C 15.7 °C 1017.8 hPa Calm   3.2 km/h 67 % 0.0 mm
00:22 22.0 °C 15.6 °C 1017.8 hPa NNW 3.2 km/h 3.2 km/h 67 % 0.0 mm
00:32 22.0 °C 15.6 °C 1017.5 hPa Calm   3.2 km/h 67 % 0.0 mm
00:42 21.9 °C 15.7 °C 1017.5 hPa NNW 1.6 km/h 3.2 km/h 68 % 0.0 mm
00:47 21.9 °C 15.7 °C 1017.5 hPa Calm   3.2 km/h 68 % 0.0 mm
00:52 21.8 °C 15.4 °C 1017.5 hPa Calm   3.2 km/h 67 % 0.0 mm
00:57 21.8 °C 15.6 °C 1017.5 hPa Calm   3.2 km/h 68 % 0.0 mm
01:02 21.8 °C 15.6 °C 1017.5 hPa North 1.6 km/h 3.2 km/h 68 % 0.0 mm
01:07 21.7 °C 15.5 °C 1017.5 hPa North 1.6 km/h 3.2 km/h 68 % 0.0 mm
01:12 21.6 °C 15.4 °C 1017.5 hPa Calm   3.2 km/h 68 % 0.0 mm
01:17 21.6 °C 15.4 °C 1017.5 hPa NNW 3.2 km/h 3.2 km/h 68 % 0.0 mm
01:22 21.7 °C 15.3 °C 1017.5 hPa NNW 1.6 km/h 3.2 km/h 67 % 0.0 mm
01:27 21.6 °C 15.2 °C 1017.5 hPa Calm   3.2 km/h 67 % 0.0 mm
01:32 21.5 °C 15.3 °C 1017.5 hPa Calm   3.2 km/h 68 % 0.0 mm
01:37 21.5 °C 15.3 °C 1017.2 hPa Calm   3.2 km/h 68 % 0.0 mm
01:42 21.4 °C 15.2 °C 1017.2 hPa Calm     68 % 0.0 mm
01:47 21.3 °C 15.2 °C 1017.2 hPa Calm     68 % 0.0 mm
01:52 21.3 °C 15.2 °C 1017.2 hPa Calm     68 % 0.0 mm
01:57 21.2 °C 15.3 °C 1017.2 hPa Calm     69 % 0.0 mm
02:02 20.8 °C 15.1 °C 1017.2 hPa Calm     70 % 0.0 mm
02:07 20.5 °C 15.3 °C 1017.2 hPa Calm     72 % 0.0 mm
02:12 20.4 °C 15.0 °C 1017.2 hPa Calm     71 % 0.0 mm
02:17 20.4 °C 15.0 °C 1017.2 hPa Calm     71 % 0.0 mm
02:22 20.4 °C 15.2 °C 1017.2 hPa Calm     72 % 0.0 mm
02:32 20.4 °C 15.0 °C 1017.2 hPa Calm   3.2 km/h 71 % 0.0 mm
02:42 20.2 °C 15.0 °C 1017.2 hPa NW 1.6 km/h 4.8 km/h 72 % 0.0 mm
02:47 20.2 °C 15.0 °C 1017.2 hPa Calm   4.8 km/h 72 % 0.0 mm
02:52 20.3 °C 15.1 °C 1016.8 hPa Calm   3.2 km/h 72 % 0.0 mm
02:57 20.2 °C 15.0 °C 1016.8 hPa North 1.6 km/h 3.2 km/h 72 % 0.0 mm
03:02 20.1 °C 15.1 °C 1016.8 hPa NNW 3.2 km/h 4.8 km/h 73 % 0.0 mm
03:07 20.0 °C 15.0 °C 1016.8 hPa NNE 3.2 km/h 4.8 km/h 73 % 0.0 mm
03:12 19.9 °C 14.9 °C 1016.8 hPa NNW 1.6 km/h 4.8 km/h 73 % 0.0 mm
03:17 19.9 °C 15.1 °C 1016.8 hPa North 3.2 km/h 4.8 km/h 74 % 0.0 mm
03:22 19.9 °C 14.9 °C 1016.8 hPa NNE 1.6 km/h 4.8 km/h 73 % 0.0 mm
03:27 19.8 °C 15.0 °C 1016.8 hPa Calm   4.8 km/h 74 % 0.0 mm
03:32 19.6 °C 14.8 °C 1016.8 hPa Calm   4.8 km/h 74 % 0.0 mm
03:37 19.5 °C 14.9 °C 1016.5 hPa Calm   3.2 km/h 75 % 0.0 mm
03:42 19.5 °C 14.9 °C 1016.5 hPa Calm   3.2 km/h 75 % 0.0 mm
03:47 19.6 °C 14.8 °C 1016.5 hPa Calm   3.2 km/h 74 % 0.0 mm
03:52 19.7 °C 14.9 °C 1016.5 hPa NE 6.4 km/h 6.4 km/h 74 % 0.0 mm
03:57 20.1 °C 15.1 °C 1016.5 hPa NE 6.4 km/h 8.0 km/h 73 % 0.0 mm
04:02 20.2 °C 15.0 °C 1016.5 hPa NE 3.2 km/h 11.3 km/h 72 % 0.0 mm
04:12 20.1 °C 15.1 °C 1016.5 hPa NNE 1.6 km/h 11.3 km/h 73 % 0.0 mm
04:17 19.9 °C 14.9 °C 1016.5 hPa Calm   9.7 km/h 73 % 0.0 mm
04:22 19.7 °C 14.9 °C 1016.1 hPa North 1.6 km/h 9.7 km/h 74 % 0.0 mm
04:32 19.5 °C 14.9 °C 1016.1 hPa NNW 1.6 km/h 4.8 km/h 75 % 0.0 mm
04:37 19.5 °C 14.9 °C 1016.1 hPa Calm   4.8 km/h 75 % 0.0 mm
04:42 19.5 °C 14.7 °C 1016.1 hPa NNW 1.6 km/h 4.8 km/h 74 % 0.0 mm
04:47 19.4 °C 14.9 °C 1016.1 hPa Calm   4.8 km/h 75 % 0.0 mm
04:52 19.3 °C 14.8 °C 1016.1 hPa Calm   4.8 km/h 75 % 0.0 mm
04:57 19.2 °C 14.7 °C 1016.1 hPa Calm   3.2 km/h 75 % 0.0 mm
05:02 19.2 °C 14.7 °C 1016.1 hPa Calm   1.6 km/h 75 % 0.0 mm
05:12 19.2 °C 14.7 °C 1016.1 hPa Calm   3.2 km/h 75 % 0.0 mm
05:17 19.1 °C 14.8 °C 1016.1 hPa Calm   3.2 km/h 76 % 0.0 mm
05:22 19.0 °C 14.7 °C 1015.8 hPa Calm   1.6 km/h 76 % 0.0 mm
05:27 19.0 °C 14.7 °C 1015.8 hPa Calm   1.6 km/h 76 % 0.0 mm
05:37 18.9 °C 14.8 °C 1015.8 hPa Calm   1.6 km/h 77 % 0.0 mm
05:42 19.0 °C 14.7 °C 1015.8 hPa North 1.6 km/h 1.6 km/h 76 % 0.0 mm
05:47 19.0 °C 14.7 °C 1015.8 hPa Calm   4.8 km/h 76 % 0.0 mm
05:52 19.0 °C 14.7 °C 1015.8 hPa Calm   4.8 km/h 76 % 0.0 mm
06:02 19.1 °C 14.6 °C 1015.8 hPa ENE 1.6 km/h 1.6 km/h 75 % 0.0 mm
06:12 19.4 °C 14.9 °C 1015.8 hPa NE 4.8 km/h 6.4 km/h 75 % 0.0 mm
06:17 19.5 °C 14.7 °C 1015.8 hPa NE 6.4 km/h 6.4 km/h 74 % 0.0 mm
06:22 19.5 °C 14.7 °C 1015.8 hPa NE 1.6 km/h 6.4 km/h 74 % 0.0 mm
06:32 19.4 °C 14.9 °C 1016.1 hPa Calm   6.4 km/h 75 % 0.0 mm
06:42 19.1 °C 14.8 °C 1015.8 hPa North 1.6 km/h 8.0 km/h 76 % 0.0 mm
06:47 19.1 °C 14.8 °C 1015.8 hPa Calm   4.8 km/h 76 % 0.0 mm
06:52 19.1 °C 14.8 °C 1015.8 hPa Calm   4.8 km/h 76 % 0.0 mm
06:57 19.2 °C 14.9 °C 1015.8 hPa Calm   3.2 km/h 76 % 0.0 mm
07:02 19.6 °C 15.0 °C 1015.8 hPa Calm   3.2 km/h 75 % 0.0 mm
07:12 20.1 °C 15.3 °C 1015.8 hPa Calm   1.6 km/h 74 % 0.0 mm
07:17 20.3 °C 15.5 °C 1015.8 hPa Calm   1.6 km/h 74 % 0.0 mm
07:22 20.6 °C 15.6 °C 1015.8 hPa Calm     73 % 0.0 mm
07:32 21.2 °C 15.9 °C 1015.8 hPa NNE 1.6 km/h   72 % 0.0 mm
07:42 21.4 °C 15.7 °C 1015.5 hPa NE 4.8 km/h 4.8 km/h 70 % 0.0 mm
07:52 21.5 °C 15.8 °C 1015.5 hPa NNE 3.2 km/h 4.8 km/h 70 % 0.0 mm
07:57 21.7 °C 15.8 °C 1015.8 hPa NE 3.2 km/h 8.0 km/h 69 % 0.0 mm
08:02 21.9 °C 16.0 °C 1015.8 hPa NE 1.6 km/h 8.0 km/h 69 % 0.0 mm
08:12 22.4 °C 16.4 °C 1015.8 hPa ENE 3.2 km/h 8.0 km/h 69 % 0.0 mm
08:17 22.5 °C 16.1 °C 1015.8 hPa ENE 4.8 km/h 4.8 km/h 67 % 0.0 mm
08:22 22.7 °C 16.0 °C 1015.8 hPa East 4.8 km/h 9.7 km/h 66 % 0.0 mm
08:27 22.9 °C 16.2 °C 1015.8 hPa ENE 3.2 km/h 9.7 km/h 66 % 0.0 mm
08:32 23.1 °C 16.4 °C 1015.8 hPa ENE 4.8 km/h 9.7 km/h 66 % 0.0 mm
08:42 23.6 °C 16.1 °C 1015.5 hPa ENE 6.4 km/h 6.4 km/h 63 % 0.0 mm
08:47 23.9 °C 15.7 °C 1015.5 hPa NE 6.4 km/h 9.7 km/h 60 % 0.0 mm
08:52 24.2 °C 15.1 °C 1015.5 hPa ESE 3.2 km/h 9.7 km/h 57 % 0.0 mm
08:57 24.5 °C 15.1 °C 1015.5 hPa Calm   11.3 km/h 56 % 0.0 mm
09:02 24.7 °C 15.1 °C 1015.5 hPa SE 8.0 km/h 11.3 km/h 55 % 0.0 mm
09:12 24.7 °C 15.6 °C 1015.5 hPa ESE 4.8 km/h 9.7 km/h 57 % 0.0 mm
09:17 25.0 °C 15.9 °C 1015.5 hPa East 1.6 km/h 11.3 km/h 57 % 0.0 mm
09:22 25.1 °C 15.7 °C 1015.5 hPa East 1.6 km/h 11.3 km/h 56 % 0.0 mm
09:27 25.2 °C 15.8 °C 1015.5 hPa SE 4.8 km/h 11.3 km/h 56 % 0.0 mm
09:32 25.5 °C 16.1 °C 1015.5 hPa NE 6.4 km/h 11.3 km/h 56 % 0.0 mm
09:42 25.5 °C 15.8 °C 1015.5 hPa Calm   11.3 km/h 55 % 0.0 mm
09:52 25.3 °C 15.6 °C 1015.1 hPa East 9.7 km/h 9.7 km/h 55 % 0.0 mm
09:57 25.8 °C 15.8 °C 1015.1 hPa ESE 1.6 km/h 14.5 km/h 54 % 0.0 mm
10:02 26.2 °C 15.3 °C 1015.1 hPa ENE 6.4 km/h 14.5 km/h 51 % 0.0 mm
10:12 26.5 °C 14.9 °C 1015.1 hPa ENE 6.4 km/h 12.9 km/h 49 % 0.0 mm
10:17 26.6 °C 14.7 °C 1015.1 hPa East 1.6 km/h 11.3 km/h 48 % 0.0 mm
10:27 27.3 °C 14.7 °C 1015.1 hPa NE 3.2 km/h 11.3 km/h 46 % 0.0 mm
10:32 27.6 °C 14.6 °C 1014.8 hPa ENE 11.3 km/h 11.3 km/h 45 % 0.0 mm
10:42 27.9 °C 14.5 °C 1014.8 hPa Calm   12.9 km/h 44 % 0.0 mm
10:52 28.4 °C 14.2 °C 1014.8 hPa East 6.4 km/h 12.9 km/h 42 % 0.0 mm
11:02 28.3 °C 14.2 °C 1014.8 hPa ESE 4.8 km/h 12.9 km/h 42 % 0.0 mm
11:12 28.7 °C 14.5 °C 1014.8 hPa ENE 1.6 km/h 12.9 km/h 42 % 0.0 mm
11:17 28.8 °C 13.9 °C 1014.8 hPa ESE 4.8 km/h 14.5 km/h 40 % 0.0 mm
11:22 28.8 °C 14.2 °C 1014.8 hPa ESE 6.4 km/h 17.7 km/h 41 % 0.0 mm
11:32 29.1 °C 14.1 °C 1014.4 hPa SW 4.8 km/h 17.7 km/h 40 % 0.0 mm
11:37 29.4 °C 14.0 °C 1014.4 hPa ENE 4.8 km/h 16.1 km/h 39 % 0.0 mm
11:47 29.8 °C 14.0 °C 1014.4 hPa ENE 1.6 km/h 16.1 km/h 38 % 0.0 mm
11:52 30.1 °C 14.6 °C 1014.4 hPa East 1.6 km/h 16.1 km/h 39 % 0.0 mm
11:57 30.2 °C 14.3 °C 1014.4 hPa East 9.7 km/h 14.5 km/h 38 % 0.0 mm
12:02 30.4 °C 14.1 °C 1014.4 hPa East 3.2 km/h 14.5 km/h 37 % 0.0 mm
12:12 30.8 °C 14.4 °C 1014.4 hPa ENE 3.2 km/h 16.1 km/h 37 % 0.0 mm
12:17 30.8 °C 13.6 °C 1014.4 hPa SE 6.4 km/h 16.1 km/h 35 % 0.0 mm
12:22 30.9 °C 13.7 °C 1014.4 hPa SE 6.4 km/h 16.1 km/h 35 % 0.0 mm
12:32 30.9 °C 13.7 °C 1014.4 hPa SSW 3.2 km/h 14.5 km/h 35 % 0.0 mm
12:37 31.0 °C 13.7 °C 1014.1 hPa SSE 8.0 km/h 16.1 km/h 35 % 0.0 mm
12:42 30.9 °C 14.1 °C 1014.1 hPa SSE 8.0 km/h 16.1 km/h 36 % 0.0 mm
12:47 31.1 °C 14.7 °C 1014.1 hPa ESE 4.8 km/h 16.1 km/h 37 % 0.0 mm
12:52 31.4 °C 14.5 °C 1013.8 hPa SSW 6.4 km/h 16.1 km/h 36 % 0.0 mm
12:57 31.2 °C 14.8 °C 1014.1 hPa ENE 8.0 km/h 16.1 km/h 37 % 0.0 mm
13:02 31.3 °C 14.4 °C 1014.1 hPa ESE 1.6 km/h 16.1 km/h 36 % 0.0 mm
13:12 31.7 °C 14.8 °C 1013.8 hPa SSW 3.2 km/h 17.7 km/h 36 % 0.0 mm
13:22 31.4 °C 13.6 °C 1013.8 hPa SSE 12.9 km/h 19.3 km/h 34 % 0.0 mm
13:32 31.2 °C 14.4 °C 1013.8 hPa SW 6.4 km/h 19.3 km/h 36 % 0.0 mm
13:37 31.1 °C 14.3 °C 1013.8 hPa East 3.2 km/h 17.7 km/h 36 % 0.0 mm
13:42 31.3 °C 14.4 °C 1013.8 hPa SSE 4.8 km/h 17.7 km/h 36 % 0.0 mm
13:52 31.8 °C 14.9 °C 1013.8 hPa WSW 6.4 km/h 19.3 km/h 36 % 0.0 mm
13:57 32.2 °C 14.3 °C 1013.4 hPa SE 4.8 km/h 19.3 km/h 34 % 0.0 mm
14:02 32.2 °C 15.2 °C 1013.4 hPa ESE 8.0 km/h 16.1 km/h 36 % 0.0 mm
14:07 32.2 °C 14.8 °C 1013.4 hPa SW 4.8 km/h 17.7 km/h 35 % 0.0 mm
14:12 32.3 °C 14.9 °C 1013.4 hPa SE 8.0 km/h 17.7 km/h 35 % 0.0 mm
14:22 32.2 °C 14.8 °C 1013.4 hPa NNE 3.2 km/h 17.7 km/h 35 % 0.0 mm
14:27 32.6 °C 15.1 °C 1013.4 hPa ESE 4.8 km/h 17.7 km/h 35 % 0.0 mm
14:32 32.6 °C 15.1 °C 1013.4 hPa East 4.8 km/h 17.7 km/h 35 % 0.0 mm
14:37 32.8 °C 14.4 °C 1013.1 hPa ESE 3.2 km/h 16.1 km/h 33 % 0.0 mm
14:42 32.7 °C 14.8 °C 1013.4 hPa ENE 4.8 km/h 17.7 km/h 34 % 0.0 mm
14:47 32.8 °C 14.4 °C 1013.1 hPa SW 4.8 km/h 17.7 km/h 33 % 0.0 mm
14:52 32.9 °C 14.5 °C 1013.1 hPa East 1.6 km/h 17.7 km/h 33 % 0.0 mm
14:57 33.1 °C 15.1 °C 1013.1 hPa SSE 3.2 km/h 24.1 km/h 34 % 0.0 mm
15:02 33.3 °C 15.8 °C 1012.8 hPa ESE 14.5 km/h 24.1 km/h 35 % 0.0 mm
15:07 33.1 °C 15.1 °C 1012.8 hPa ESE 3.2 km/h 16.1 km/h 34 % 0.0 mm
15:12 32.9 °C 14.5 °C 1012.8 hPa SSW 14.5 km/h 19.3 km/h 33 % 0.0 mm
15:17 32.9 °C 14.5 °C 1012.8 hPa ESE 9.7 km/h 19.3 km/h 33 % 0.0 mm
15:22 33.1 °C 15.6 °C 1012.8 hPa ESE 6.4 km/h 19.3 km/h 35 % 0.0 mm
15:32 32.4 °C 14.5 °C 1012.8 hPa West 3.2 km/h 19.3 km/h 34 % 0.0 mm
15:37 32.5 °C 15.1 °C 1012.8 hPa SE 3.2 km/h 19.3 km/h 35 % 0.0 mm
15:42 33.0 °C 15.5 °C 1012.8 hPa SE 4.8 km/h 16.1 km/h 35 % 0.0 mm
15:47 33.2 °C 15.2 °C 1012.4 hPa ENE 6.4 km/h 16.1 km/h 34 % 0.0 mm
15:52 33.3 °C 15.8 °C 1012.4 hPa SE 12.9 km/h 16.1 km/h 35 % 0.0 mm
15:57 33.4 °C 15.4 °C 1012.4 hPa East 4.8 km/h 16.1 km/h 34 % 0.0 mm
16:02 33.6 °C 15.6 °C 1012.4 hPa ESE 4.8 km/h 16.1 km/h 34 % 0.0 mm
16:07 33.8 °C 15.7 °C 1012.4 hPa ESE 8.0 km/h 14.5 km/h 34 % 0.0 mm
16:12 33.7 °C 15.2 °C 1012.4 hPa East 6.4 km/h 14.5 km/h 33 % 0.0 mm
16:17 33.7 °C 15.2 °C 1012.1 hPa SE 6.4 km/h 16.1 km/h 33 % 0.0 mm
16:22 33.6 °C 15.1 °C 1012.1 hPa East 8.0 km/h 17.7 km/h 33 % 0.0 mm
16:27 33.6 °C 14.6 °C 1012.1 hPa SE 6.4 km/h 17.7 km/h 32 % 0.0 mm
16:32 33.6 °C 15.1 °C 1012.1 hPa ESE 16.1 km/h 17.7 km/h 33 % 0.0 mm
16:37 33.5 °C 15.0 °C 1012.1 hPa ESE 16.1 km/h 17.7 km/h 33 % 0.0 mm
16:42 33.8 °C 16.2 °C 1011.7 hPa East 8.0 km/h 25.7 km/h 35 % 0.0 mm
16:47 33.6 °C 15.6 °C 1012.1 hPa SE 6.4 km/h 25.7 km/h 34 % 0.0 mm
16:57 32.4 °C 14.5 °C 1012.1 hPa East 6.4 km/h 16.1 km/h 34 % 0.0 mm
17:02 32.1 °C 15.1 °C 1011.7 hPa Calm   16.1 km/h 36 % 0.0 mm
17:07 31.8 °C 15.3 °C 1012.1 hPa SE 1.6 km/h 12.9 km/h 37 % 0.0 mm
17:12 31.7 °C 15.6 °C 1011.7 hPa ESE 3.2 km/h 12.9 km/h 38 % 0.0 mm
17:17 31.5 °C 16.3 °C 1011.7 hPa South 3.2 km/h 12.9 km/h 40 % 0.0 mm
17:22 31.2 °C 17.1 °C 1011.7 hPa SE 4.8 km/h 12.9 km/h 43 % 0.0 mm
17:27 30.3 °C 19.3 °C 1011.7 hPa SE 3.2 km/h 12.9 km/h 52 % 0.0 mm
17:32 29.3 °C 19.0 °C 1011.7 hPa East 6.4 km/h 11.3 km/h 54 % 0.3 mm
17:37 29.2 °C 19.8 °C 1011.7 hPa East 4.8 km/h 11.3 km/h 57 % 0.3 mm
17:42 29.6 °C 19.3 °C 1011.7 hPa ENE 8.0 km/h 11.3 km/h 54 % 0.3 mm
17:47 29.9 °C 19.3 °C 1011.7 hPa East 8.0 km/h 11.3 km/h 53 % 0.3 mm
17:52 30.3 °C 19.3 °C 1011.7 hPa ENE 8.0 km/h 14.5 km/h 52 % 0.3 mm
17:57 30.7 °C 18.8 °C 1011.4 hPa ENE 9.7 km/h 17.7 km/h 49 % 0.3 mm
18:02 31.0 °C 18.7 °C 1011.4 hPa ENE 4.8 km/h 17.7 km/h 48 % 0.3 mm
18:12 31.3 °C 19.0 °C 1011.4 hPa ENE 8.0 km/h 16.1 km/h 48 % 0.3 mm
18:17 31.4 °C 19.1 °C 1011.4 hPa ENE 9.7 km/h 16.1 km/h 48 % 0.3 mm
18:22 31.2 °C 19.2 °C 1011.4 hPa ENE 8.0 km/h 16.1 km/h 49 % 0.3 mm
18:27 31.1 °C 19.1 °C 1011.1 hPa NE 3.2 km/h 16.1 km/h 49 % 0.3 mm
18:32 31.1 °C 18.5 °C 1011.1 hPa East 6.4 km/h 12.9 km/h 47 % 0.0 mm
18:42 31.2 °C 18.2 °C 1011.1 hPa East 4.8 km/h 12.9 km/h 46 % 0.0 mm
18:52 31.2 °C 17.5 °C 1011.1 hPa East 4.8 km/h 11.3 km/h 44 % 0.0 mm
18:57 31.4 °C 17.3 °C 1011.1 hPa ESE 1.6 km/h 11.3 km/h 43 % 0.0 mm
19:02 31.6 °C 17.1 °C 1011.1 hPa ENE 4.8 km/h 9.7 km/h 42 % 0.0 mm
19:07 31.6 °C 17.5 °C 1011.1 hPa ENE 4.8 km/h 9.7 km/h 43 % 0.0 mm
19:12 31.4 °C 17.3 °C 1011.1 hPa ENE 8.0 km/h 9.7 km/h 43 % 0.0 mm
19:17 31.3 °C 16.9 °C 1011.1 hPa ENE 4.8 km/h 9.7 km/h 42 % 0.0 mm
19:22 31.3 °C 16.5 °C 1011.1 hPa ENE 8.0 km/h 11.3 km/h 41 % 0.0 mm
19:27 31.3 °C 16.9 °C 1011.1 hPa ENE 4.8 km/h 12.9 km/h 42 % 0.0 mm
19:32 31.2 °C 17.1 °C 1011.1 hPa East 9.7 km/h 12.9 km/h 43 % 0.0 mm
19:37 31.2 °C 16.8 °C 1011.1 hPa East 3.2 km/h 12.9 km/h 42 % 0.0 mm
19:42 31.1 °C 17.0 °C 1011.1 hPa ENE 6.4 km/h 12.9 km/h 43 % 0.0 mm
19:47 30.9 °C 16.9 °C 1011.1 hPa East 1.6 km/h 12.9 km/h 43 % 0.0 mm
19:52 30.9 °C 16.9 °C 1011.1 hPa ENE 6.4 km/h 9.7 km/h 43 % 0.0 mm
19:57 30.8 °C 16.8 °C 1011.1 hPa East 8.0 km/h 9.7 km/h 43 % 0.0 mm
20:02 30.8 °C 16.8 °C 1010.7 hPa East 6.4 km/h 11.3 km/h 43 % 0.0 mm
20:12 30.6 °C 17.0 °C 1010.7 hPa East 4.8 km/h 11.3 km/h 44 % 0.0 mm
20:17 30.4 °C 16.8 °C 1010.7 hPa East 4.8 km/h 11.3 km/h 44 % 0.0 mm
20:22 30.3 °C 17.0 °C 1010.7 hPa East 1.6 km/h 9.7 km/h 45 % 0.0 mm
20:27 30.3 °C 17.0 °C 1010.7 hPa ENE 3.2 km/h 9.7 km/h 45 % 0.0 mm
20:32 30.2 °C 16.9 °C 1010.4 hPa ENE 4.8 km/h 8.0 km/h 45 % 0.0 mm
20:37 30.1 °C 17.2 °C 1010.4 hPa ENE 4.8 km/h 8.0 km/h 46 % 0.0 mm
20:42 29.9 °C 17.4 °C 1010.4 hPa ENE 1.6 km/h 6.4 km/h 47 % 0.0 mm
20:47 29.8 °C 17.3 °C 1010.4 hPa East 3.2 km/h 8.0 km/h 47 % 0.0 mm
20:52 29.6 °C 17.1 °C 1010.7 hPa East 6.4 km/h 8.0 km/h 47 % 0.0 mm
20:57 29.3 °C 17.2 °C 1010.4 hPa ENE 3.2 km/h 8.0 km/h 48 % 0.0 mm
21:02 29.2 °C 17.1 °C 1010.4 hPa East 3.2 km/h 8.0 km/h 48 % 0.0 mm
21:07 29.1 °C 17.0 °C 1010.4 hPa ENE 3.2 km/h 8.0 km/h 48 % 0.0 mm
21:12 28.9 °C 16.8 °C 1010.4 hPa East 3.2 km/h 8.0 km/h 48 % 0.0 mm
21:17 28.7 °C 16.9 °C 1010.4 hPa Calm   6.4 km/h 49 % 0.0 mm
21:22 28.7 °C 17.2 °C 1010.4 hPa West 1.6 km/h 6.4 km/h 50 % 0.0 mm
21:32 27.5 °C 17.4 °C 1010.7 hPa Calm   4.8 km/h 54 % 0.0 mm
21:37 27.2 °C 17.1 °C 1010.7 hPa ENE 1.6 km/h 6.4 km/h 54 % 0.0 mm
21:42 27.7 °C 16.9 °C 1010.7 hPa Calm   6.4 km/h 52 % 0.0 mm
21:47 27.5 °C 17.1 °C 1010.7 hPa Calm   3.2 km/h 53 % 0.0 mm
21:52 27.4 °C 16.7 °C 1010.7 hPa East 1.6 km/h 3.2 km/h 52 % 0.0 mm
21:57 27.4 °C 16.7 °C 1010.7 hPa ENE 1.6 km/h 3.2 km/h 52 % 0.0 mm
22:02 27.1 °C 17.0 °C 1010.7 hPa Calm   4.8 km/h 54 % 0.0 mm
22:07 26.3 °C 16.8 °C 1010.7 hPa Calm   4.8 km/h 56 % 0.0 mm
22:12 26.3 °C 16.5 °C 1010.7 hPa Calm   3.2 km/h 55 % 0.0 mm
22:17 26.3 °C 16.8 °C 1011.1 hPa WNW 1.6 km/h   56 % 0.0 mm
22:22 25.9 °C 16.7 °C 1010.7 hPa Calm   3.2 km/h 57 % 0.0 mm
22:32 25.7 °C 16.8 °C 1011.1 hPa Calm   3.2 km/h 58 % 0.0 mm
22:37 25.5 °C 16.6 °C 1010.7 hPa Calm   1.6 km/h 58 % 0.0 mm
22:42 25.4 °C 16.5 °C 1011.1 hPa Calm   1.6 km/h 58 % 0.0 mm
22:47 25.5 °C 16.4 °C 1011.1 hPa Calm   1.6 km/h 57 % 0.0 mm
22:52 25.4 °C 16.5 °C 1011.1 hPa Calm   1.6 km/h 58 % 0.0 mm
22:57 25.4 °C 16.5 °C 1010.7 hPa Calm   1.6 km/h 58 % 0.0 mm
23:02 24.9 °C 16.3 °C 1010.7 hPa Calm   1.6 km/h 59 % 0.0 mm
23:07 24.6 °C 16.6 °C 1010.7 hPa WNW 1.6 km/h 3.2 km/h 61 % 0.0 mm
23:12 24.3 °C 16.6 °C 1011.1 hPa Calm   3.2 km/h 62 % 0.0 mm
23:17 24.4 °C 16.4 °C 1011.1 hPa Calm   3.2 km/h 61 % 0.0 mm
23:22 24.6 °C 16.3 °C 1011.1 hPa Calm   3.2 km/h 60 % 0.0 mm
23:27 24.7 °C 16.1 °C 1010.7 hPa Calm   1.6 km/h 59 % 0.0 mm
23:32 24.6 °C 16.3 °C 1010.7 hPa Calm   1.6 km/h 60 % 0.0 mm
23:37 24.2 °C 16.5 °C 1011.1 hPa Calm     62 % 0.0 mm
23:42 24.0 °C 16.3 °C 1011.1 hPa Calm     62 % 0.0 mm
23:47 23.9 °C 15.7 °C 1011.1 hPa Calm     60 % 0.0 mm
23:52 23.9 °C 15.7 °C 1011.1 hPa Calm   3.2 km/h 60 % 0.0 mm
23:57 24.2 °C 15.7 °C 1011.1 hPa Calm   3.2 km/h 59 % 0.0 mm
Meteo18
Compliments of Weather Underground - 4 mb

Script developed by  Jim McMurry - jmcmurry@mwt.net Adapted for the template by  Wim van der Kuil - Leuven-Template.eu

You find our weather info also at:

European Weather Network

Weather Underground

Equipment we use:

Weather-station
Davis Vue

Weather-program
Meteohub

Weather-server
Raspberry PI 2 B+

Provider
1 and 1

Davis Vue

Meteohub

Raspberry PI 2 B+

1 and 1